WJA463 CYYZ-CYEG
Flight info
| Callsign | WJA463 |
|---|---|
| Flight time | N/A |
| Altitude | 36000 |
| Route | AVSEP7 MUSIT Q917 SSM DCT AGLIN Q831 GABOV DCT KOBID/N0447F380 Q908 TAGOT Q819 REFEX DCT CAMRA IGSOX3 |
| Aircraft | B737/M-SDE2E3FGHIRWXY/LB1 |
Departure
| Time | N/A |
|---|---|
| Airport | Toronto Pearson International Airport (CYYZ) |
Arrival
| Time | 2026-04-29 18:05 |
|---|---|
| Airport | Edmonton International Airport (CYEG) |
| Time | Latitude | Longitude | Altitude | Speed | Heading |
|---|---|---|---|---|---|
| 2026-04-29 17:29 | 52.71454 | -110.09479 | 38257 ft | 422 kts | 287° |
| 2026-04-29 17:29 | 52.72124 | -110.14199 | 38259 ft | 423 kts | 287° |
| 2026-04-29 17:30 | 52.73461 | -110.23659 | 38260 ft | 423 kts | 287° |
| 2026-04-29 17:30 | 52.74098 | -110.28195 | 38232 ft | 411 kts | 287° |
| 2026-04-29 17:30 | 52.74737 | -110.32786 | 38230 ft | 396 kts | 287° |
| 2026-04-29 17:31 | 52.75342 | -110.37141 | 38238 ft | 382 kts | 287° |
| 2026-04-29 17:31 | 52.75925 | -110.41340 | 38226 ft | 370 kts | 287° |
| 2026-04-29 17:31 | 52.77076 | -110.49589 | 38283 ft | 374 kts | 287° |
| 2026-04-29 17:32 | 52.78264 | -110.58117 | 38238 ft | 388 kts | 287° |
| 2026-04-29 17:32 | 52.78866 | -110.62470 | 37770 ft | 390 kts | 287° |
| 2026-04-29 17:32 | 52.79468 | -110.66855 | 36753 ft | 396 kts | 287° |
| 2026-04-29 17:33 | 52.80082 | -110.71338 | 35734 ft | 402 kts | 288° |
| 2026-04-29 17:33 | 52.80697 | -110.75856 | 35000 ft | 400 kts | 288° |
| 2026-04-29 17:33 | 52.81299 | -110.80309 | 34454 ft | 394 kts | 288° |
| 2026-04-29 17:33 | 52.81889 | -110.84696 | 33866 ft | 387 kts | 288° |
| 2026-04-29 17:34 | 52.82469 | -110.89015 | 33194 ft | 383 kts | 288° |
| 2026-04-29 17:34 | 52.83044 | -110.93294 | 32496 ft | 379 kts | 288° |
| 2026-04-29 17:34 | 52.83615 | -110.97540 | 31827 ft | 376 kts | 288° |
| 2026-04-29 17:34 | 52.84177 | -111.01740 | 31194 ft | 373 kts | 288° |
| 2026-04-29 17:35 | 52.85099 | -111.08650 | 30139 ft | 367 kts | 288° |
| 2026-04-29 17:35 | 52.85633 | -111.12657 | 29514 ft | 367 kts | 289° |
| 2026-04-29 17:36 | 52.85803 | -111.13934 | 29379 ft | 366 kts | 289° |
| 2026-04-29 17:36 | 52.86348 | -111.18042 | 28784 ft | 365 kts | 288° |
| 2026-04-29 17:36 | 52.86888 | -111.22129 | 28355 ft | 362 kts | 288° |
| 2026-04-29 17:37 | 52.87420 | -111.26177 | 27940 ft | 358 kts | 288° |
| 2026-04-29 17:37 | 52.87945 | -111.30179 | 27544 ft | 354 kts | 288° |
| 2026-04-29 17:37 | 52.88465 | -111.34151 | 27130 ft | 351 kts | 288° |
| 2026-04-29 17:37 | 52.88976 | -111.38070 | 26747 ft | 347 kts | 288° |
| 2026-04-29 17:38 | 52.89483 | -111.41962 | 26362 ft | 344 kts | 288° |
| 2026-04-29 17:38 | 52.89984 | -111.45822 | 25968 ft | 341 kts | 288° |
| 2026-04-29 17:38 | 52.90481 | -111.49658 | 25583 ft | 339 kts | 287° |
| 2026-04-29 17:38 | 52.90971 | -111.53451 | 25213 ft | 336 kts | 287° |
| 2026-04-29 17:39 | 52.91458 | -111.57225 | 24826 ft | 333 kts | 287° |
| 2026-04-29 17:39 | 52.91938 | -111.60965 | 24456 ft | 331 kts | 287° |
| 2026-04-29 17:39 | 52.92415 | -111.64686 | 24070 ft | 329 kts | 287° |
| 2026-04-29 17:39 | 52.92889 | -111.68390 | 23653 ft | 327 kts | 287° |
| 2026-04-29 17:40 | 52.93358 | -111.72069 | 23216 ft | 325 kts | 287° |
| 2026-04-29 17:40 | 52.93821 | -111.75712 | 22832 ft | 322 kts | 287° |
| 2026-04-29 17:40 | 52.94278 | -111.79324 | 22434 ft | 318 kts | 287° |
| 2026-04-29 17:40 | 52.94729 | -111.82893 | 22056 ft | 315 kts | 287° |
| 2026-04-29 17:41 | 52.95171 | -111.86393 | 21678 ft | 313 kts | 287° |
| 2026-04-29 17:41 | 52.95614 | -111.89913 | 21314 ft | 310 kts | 287° |
| 2026-04-29 17:41 | 52.96052 | -111.93404 | 20942 ft | 308 kts | 287° |
| 2026-04-29 17:41 | 52.96436 | -111.96470 | 20614 ft | 306 kts | 287° |
| 2026-04-29 17:42 | 52.96873 | -111.99963 | 20246 ft | 304 kts | 287° |
| 2026-04-29 17:42 | 52.97292 | -112.03332 | 19882 ft | 302 kts | 287° |
| 2026-04-29 17:42 | 52.97715 | -112.06732 | 19523 ft | 300 kts | 287° |
| 2026-04-29 17:42 | 52.98134 | -112.10114 | 19158 ft | 298 kts | 287° |
| 2026-04-29 17:43 | 52.98550 | -112.13473 | 18799 ft | 297 kts | 287° |
| 2026-04-29 17:43 | 52.98963 | -112.16820 | 18426 ft | 296 kts | 287° |
| 2026-04-29 17:43 | 52.99379 | -112.20197 | 18008 ft | 295 kts | 287° |
| 2026-04-29 17:43 | 52.99782 | -112.23487 | 17640 ft | 293 kts | 286° |
| 2026-04-29 17:44 | 53.00187 | -112.26795 | 17286 ft | 289 kts | 286° |
| 2026-04-29 17:44 | 53.00585 | -112.30057 | 16919 ft | 288 kts | 286° |
| 2026-04-29 17:44 | 53.00985 | -112.33326 | 16393 ft | 291 kts | 286° |
| 2026-04-29 17:44 | 53.01385 | -112.36615 | 16023 ft | 290 kts | 286° |
| 2026-04-29 17:45 | 53.01782 | -112.39885 | 15616 ft | 288 kts | 285° |
| 2026-04-29 17:45 | 53.02177 | -112.43144 | 15254 ft | 287 kts | 285° |
| 2026-04-29 17:45 | 53.02566 | -112.46375 | 14896 ft | 285 kts | 285° |
| 2026-04-29 17:45 | 53.02953 | -112.49593 | 14549 ft | 283 kts | 285° |
| 2026-04-29 17:46 | 53.03372 | -112.52784 | 14159 ft | 282 kts | 288° |
| 2026-04-29 17:46 | 53.03859 | -112.55937 | 13745 ft | 281 kts | 288° |
| 2026-04-29 17:46 | 53.04356 | -112.59065 | 13365 ft | 279 kts | 288° |
| 2026-04-29 17:46 | 53.04852 | -112.62179 | 13000 ft | 277 kts | 288° |
| 2026-04-29 17:47 | 53.05338 | -112.65255 | 12635 ft | 274 kts | 288° |
| 2026-04-29 17:47 | 53.05811 | -112.68267 | 12290 ft | 272 kts | 288° |
| 2026-04-29 17:47 | 53.06284 | -112.71295 | 11946 ft | 270 kts | 288° |
| 2026-04-29 17:47 | 53.06753 | -112.74314 | 11593 ft | 268 kts | 288° |
| 2026-04-29 17:48 | 53.07222 | -112.77342 | 11262 ft | 266 kts | 288° |
| 2026-04-29 17:48 | 53.07674 | -112.80269 | 10926 ft | 264 kts | 288° |
| 2026-04-29 17:48 | 53.08128 | -112.83218 | 10580 ft | 262 kts | 288° |
| 2026-04-29 17:48 | 53.08578 | -112.86144 | 10248 ft | 261 kts | 288° |
| 2026-04-29 17:49 | 53.09021 | -112.89036 | 10081 ft | 253 kts | 288° |
| 2026-04-29 17:49 | 53.09454 | -112.91868 | 9719 ft | 252 kts | 288° |
| 2026-04-29 17:49 | 53.09881 | -112.94660 | 9411 ft | 248 kts | 288° |
| 2026-04-29 17:49 | 53.10306 | -112.97438 | 9092 ft | 247 kts | 288° |
| 2026-04-29 17:50 | 53.10727 | -113.00200 | 8761 ft | 245 kts | 288° |
| 2026-04-29 17:50 | 53.11141 | -113.02929 | 8481 ft | 242 kts | 288° |
| 2026-04-29 17:50 | 53.11550 | -113.05629 | 8188 ft | 239 kts | 288° |
| 2026-04-29 17:50 | 53.11964 | -113.08306 | 7863 ft | 238 kts | 288° |
| 2026-04-29 17:51 | 53.12392 | -113.10960 | 7575 ft | 237 kts | 289° |
| 2026-04-29 17:51 | 53.12821 | -113.13602 | 7256 ft | 236 kts | 288° |
| 2026-04-29 17:51 | 53.13248 | -113.16237 | 6953 ft | 235 kts | 288° |
| 2026-04-29 17:51 | 53.13672 | -113.18863 | 6644 ft | 234 kts | 288° |
| 2026-04-29 17:52 | 53.14086 | -113.21442 | 6516 ft | 226 kts | 288° |
| 2026-04-29 17:52 | 53.14352 | -113.23094 | 6427 ft | 221 kts | 288° |
| 2026-04-29 17:52 | 53.14867 | -113.26310 | 6267 ft | 209 kts | 288° |
| 2026-04-29 17:52 | 53.15233 | -113.28602 | 6175 ft | 200 kts | 288° |
| 2026-04-29 17:53 | 53.15581 | -113.30780 | 6089 ft | 190 kts | 288° |
| 2026-04-29 17:53 | 53.15914 | -113.32872 | 5958 ft | 188 kts | 288° |
| 2026-04-29 17:53 | 53.16254 | -113.34982 | 5777 ft | 188 kts | 290° |
| 2026-04-29 17:53 | 53.16922 | -113.36778 | 5535 ft | 180 kts | 319° |
| 2026-04-29 17:54 | 53.17811 | -113.38198 | 5348 ft | 181 kts | 316° |
| 2026-04-29 17:54 | 53.18709 | -113.39702 | 5135 ft | 181 kts | 316° |
| 2026-04-29 17:54 | 53.19603 | -113.41194 | 5078 ft | 183 kts | 316° |
| 2026-04-29 17:54 | 53.20495 | -113.42679 | 5046 ft | 183 kts | 316° |
| 2026-04-29 17:55 | 53.21402 | -113.44187 | 4997 ft | 181 kts | 316° |
| 2026-04-29 17:55 | 53.22287 | -113.45657 | 4991 ft | 179 kts | 316° |
| 2026-04-29 17:55 | 53.23162 | -113.47110 | 5007 ft | 181 kts | 316° |
| 2026-04-29 17:55 | 53.24080 | -113.48614 | 5003 ft | 183 kts | 316° |
| 2026-04-29 17:56 | 53.24974 | -113.50098 | 4988 ft | 178 kts | 316° |
| 2026-04-29 17:56 | 53.25837 | -113.51546 | 4892 ft | 171 kts | 316° |
| 2026-04-29 17:56 | 53.26673 | -113.52947 | 4982 ft | 176 kts | 316° |
| 2026-04-29 17:56 | 53.27567 | -113.54443 | 5103 ft | 184 kts | 316° |
| 2026-04-29 17:57 | 53.28482 | -113.55976 | 5040 ft | 191 kts | 316° |
| 2026-04-29 17:57 | 53.29472 | -113.57445 | 4986 ft | 190 kts | 332° |
| 2026-04-29 17:57 | 53.30743 | -113.57827 | 4782 ft | 189 kts | 7° |
| 2026-04-29 17:57 | 53.31583 | -113.57442 | 4525 ft | 191 kts | 22° |
| 2026-04-29 17:58 | 53.32892 | -113.55350 | 4108 ft | 203 kts | 61° |
| 2026-04-29 17:58 | 53.33137 | -113.53040 | 4035 ft | 201 kts | 95° |
| 2026-04-29 17:58 | 53.32692 | -113.50945 | 4008 ft | 183 kts | 116° |
| 2026-04-29 17:58 | 53.32089 | -113.49119 | 3980 ft | 177 kts | 122° |
| 2026-04-29 17:59 | 53.31378 | -113.47432 | 4024 ft | 182 kts | 126° |
| 2026-04-29 17:59 | 53.30604 | -113.45731 | 3997 ft | 183 kts | 131° |
| 2026-04-29 17:59 | 53.29672 | -113.44356 | 3997 ft | 176 kts | 141° |
| 2026-04-29 17:59 | 53.28720 | -113.43085 | 4031 ft | 175 kts | 141° |
| 2026-04-29 18:00 | 53.27756 | -113.41814 | 4048 ft | 177 kts | 142° |
| 2026-04-29 18:00 | 53.26783 | -113.40530 | 4040 ft | 179 kts | 141° |
| 2026-04-29 18:00 | 53.25808 | -113.39236 | 4048 ft | 180 kts | 142° |
| 2026-04-29 18:00 | 53.24829 | -113.37935 | 4048 ft | 179 kts | 141° |
| 2026-04-29 18:01 | 53.23725 | -113.37130 | 4015 ft | 173 kts | 186° |
| 2026-04-29 18:01 | 53.22717 | -113.38034 | 4055 ft | 169 kts | 240° |
| 2026-04-29 18:01 | 53.22575 | -113.39875 | 4041 ft | 163 kts | 295° |
| 2026-04-29 18:01 | 53.23251 | -113.41374 | 4048 ft | 164 kts | 298° |
| 2026-04-29 18:02 | 53.23515 | -113.43214 | 4064 ft | 167 kts | 283° |
| 2026-04-29 18:02 | 53.23752 | -113.45110 | 4005 ft | 165 kts | 283° |
| 2026-04-29 18:02 | 53.23980 | -113.46976 | 3990 ft | 163 kts | 283° |
| 2026-04-29 18:02 | 53.24288 | -113.48781 | 3980 ft | 161 kts | 299° |
| 2026-04-29 18:03 | 53.24994 | -113.50145 | 3838 ft | 149 kts | 315° |
| 2026-04-29 18:03 | 53.25693 | -113.51359 | 3425 ft | 147 kts | 312° |
| 2026-04-29 18:03 | 53.26419 | -113.52601 | 2950 ft | 148 kts | 314° |
| 2026-04-29 18:03 | 53.27144 | -113.53774 | 2884 ft | 142 kts | 315° |
| 2026-04-29 18:04 | 53.27869 | -113.54950 | 2633 ft | 149 kts | 313° |
| 2026-04-29 18:04 | 53.28598 | -113.56188 | 2472 ft | 151 kts | 314° |
| 2026-04-29 18:04 | 53.29308 | -113.57369 | 2391 ft | 131 kts | 314° |
| 2026-04-29 18:04 | 53.29707 | -113.58034 | 2386 ft | 113 kts | 315° |
| 2026-04-29 18:05 | 53.30148 | -113.58769 | 2383 ft | 32 kts | 317° |
| 2026-04-29 18:05 | 53.30204 | -113.58839 | 2382 ft | 11 kts | 346° |
| 2026-04-29 18:05 | 53.30281 | -113.58851 | 2386 ft | 11 kts | 1° |
| 2026-04-29 18:05 | 53.30354 | -113.58852 | 2385 ft | 10 kts | 359° |
| 2026-04-29 18:06 | 53.30423 | -113.58852 | 2387 ft | 10 kts | 358° |
| 2026-04-29 18:06 | 53.30462 | -113.58853 | 2383 ft | 2 kts | 1° |
| 2026-04-29 18:06 | 53.30479 | -113.58852 | 2383 ft | 3 kts | 1° |
| 2026-04-29 18:06 | 53.30503 | -113.58852 | 2383 ft | 3 kts | 1° |
| 2026-04-29 18:07 | 53.30526 | -113.58849 | 2385 ft | 3 kts | 14° |
| 2026-04-29 18:07 | 53.30550 | -113.58826 | 2387 ft | 5 kts | 38° |
| 2026-04-29 18:07 | 53.30588 | -113.58763 | 2383 ft | 9 kts | 49° |
| 2026-04-29 18:07 | 53.30594 | -113.58676 | 2383 ft | 6 kts | 111° |
| 2026-04-29 18:08 | 53.30581 | -113.58648 | 2387 ft | 3 kts | 131° |
| 2026-04-29 18:08 | 53.30573 | -113.58620 | 2383 ft | 3 kts | 84° |
| 2026-04-29 18:08 | 53.30581 | -113.58601 | 2383 ft | 3 kts | 46° |
| 2026-04-29 18:19 | 53.30591 | -113.58587 | 2385 ft | 3 kts | 40° |
| 2026-04-29 18:20 | 53.30599 | -113.58577 | 2383 ft | 3 kts | 40° |
| 2026-04-29 18:22 | 53.30606 | -113.58566 | 2387 ft | 4 kts | 40° |
| 2026-04-29 18:23 | 53.30631 | -113.58529 | 2383 ft | 3 kts | 42° |
| 2026-04-29 18:23 | 53.30637 | -113.58520 | 2385 ft | 0 kts | 41° |